EDLN

Mönchengladbach Airport

Mönchengladbach, Germany
METAR EDLN 091850Z 29010KT 9999 VCSH SCT020 BKN049 07/05 Q1011
Observed Flight Rules
Dec-9 @ 18:50 UTC (3 hours ago) Visual Flight Rules
Wind Visibility Clouds
290° at 10 knots 10,000+ meters
  • Scattered at 2,000' AGL
  • Broken at 4,900' AGL
Temperatures Readings
Current 7°C / 45°F
Dewpoint 5°C / 41°F
Humidity 87%
Altimeter 29.85" Hg
Pressure 1011 hPa
Elevation 38
METAR EDLN 091850Z 29010KT 9999 VCSH SCT020 BKN049 07/05 Q1011
Observed Flight Rules
Dec-9 @ 18:50 UTC
(3 hours ago)
VFR
Wind Visibility
290° at 10 knots 10,000+ meters
Clouds
  • Scattered at 2,000' AGL
  • Broken at 4,900' AGL
Temperature Dewpoint
7°C / 45°F 5°C / 41°F
Humidity Altimeter Pressure
87% 29.85" Hg 1011 hPa